Edgewater, Maryland
Current Conditions -  °F | °C
As of 5:54 PM on Wednesday 22 Oct 2014 (Local Time) from KNAK Reporting Station
Light Rain Light Rain  
Wind Chill: 56°   Ceiling: 6500
Heat Index: 56°   Visibility: 7mi
Dew Point: 50°   Wind: 16mph
Humidity: 80%   Direction: 330°NNW
Pressure: 29.89"   Gusts: NA
Location:  38.96°N, 76.55°W
Report Text: KNAK 222154Z AUTO 33014KT 7SM -RA FEW035 BKN065 OVC080 13/10 A2989 RMK AO2 RAE21B42 SLP123 P0000 T01330100
Loading
Personal Weather Stations






























Interactive Weather Map
Tropical Storm Tracking
New forecast layout! Learn more

10-Day Weather Forecast

Advertisements
Track Severe Weather on mobile